createdAt,value
2024-01-18T00:00:09.049Z,14.05
2024-01-18T00:03:11.526Z,24.40
2024-01-18T00:06:14.066Z,13.38
2024-01-18T00:09:16.328Z,13.77
2024-01-18T00:12:18.500Z,15.75
2024-01-18T00:15:20.929Z,14.07
2024-01-18T00:18:23.268Z,17.77
2024-01-18T00:21:25.665Z,11.48
2024-01-18T00:24:28.018Z,12.40
2024-01-18T00:27:30.291Z,10.82
2024-01-18T00:30:32.636Z,11.07
2024-01-18T00:33:35.043Z,11.70
2024-01-18T00:36:37.562Z,17.27
2024-01-18T00:39:43.662Z,13.02
2024-01-18T00:42:45.977Z,16.13
2024-01-18T00:45:48.174Z,13.52
2024-01-18T00:48:50.541Z,12.40
2024-01-18T00:51:52.901Z,10.23
2024-01-18T00:54:55.177Z,7.60
2024-01-18T00:57:57.374Z,10.57
2024-01-18T01:01:00.166Z,10.75
2024-01-18T01:04:03.216Z,7.10
2024-01-18T01:07:05.861Z,8.02
2024-01-18T01:10:08.461Z,10.10
2024-01-18T01:13:11.157Z,12.65
2024-01-18T01:16:13.536Z,6.03
2024-01-18T01:19:15.852Z,7.68
2024-01-18T01:22:18.187Z,7.97
2024-01-18T01:25:20.387Z,6.33
2024-01-18T01:28:22.591Z,9.07
2024-01-18T01:31:24.796Z,8.23
2024-01-18T01:34:26.981Z,5.13
2024-01-18T01:37:29.184Z,8.48
2024-01-18T01:40:31.425Z,7.20
2024-01-18T01:43:33.697Z,7.80
2024-01-18T01:46:35.764Z,8.18
2024-01-18T01:49:38.507Z,5.65
2024-01-18T01:52:42.909Z,5.80
2024-01-18T01:55:46.694Z,8.47
2024-01-18T01:58:53.027Z,5.97
2024-01-18T02:01:55.408Z,5.20
2024-01-18T02:04:57.637Z,5.60
2024-01-18T02:08:00.364Z,5.82
2024-01-18T02:11:03.814Z,9.07
2024-01-18T02:14:06.154Z,5.20
2024-01-18T02:17:08.547Z,8.00
2024-01-18T02:20:11.494Z,9.70
2024-01-18T02:23:13.977Z,6.40
2024-01-18T02:26:16.308Z,7.73
2024-01-18T02:29:18.587Z,8.48
2024-01-18T02:32:20.752Z,8.48
2024-01-18T02:35:23.067Z,5.20
2024-01-18T02:38:25.953Z,6.18
2024-01-18T02:41:30.840Z,6.15
2024-01-18T02:44:33.115Z,9.07
2024-01-18T02:47:36.384Z,5.50
2024-01-18T02:50:42.279Z,6.80
2024-01-18T02:53:44.585Z,6.47
2024-01-18T02:56:46.717Z,5.17
2024-01-18T02:59:48.968Z,5.82
2024-01-18T03:02:51.090Z,5.78
2024-01-18T03:05:53.217Z,7.73
2024-01-18T03:08:55.353Z,9.88
2024-01-18T03:11:58.227Z,6.13
2024-01-18T03:15:00.504Z,6.25
2024-01-18T03:18:02.869Z,9.07
2024-01-18T03:21:08.269Z,6.18
2024-01-18T03:24:10.744Z,7.82
2024-01-18T03:27:13.187Z,7.77
2024-01-18T03:30:15.533Z,6.75
2024-01-18T03:33:18.464Z,8.57
2024-01-18T03:36:21.238Z,6.57
2024-01-18T03:39:23.418Z,6.15
2024-01-18T03:42:25.740Z,6.50
2024-01-18T03:45:27.888Z,4.80
2024-01-18T03:48:30.138Z,6.35
2024-01-18T03:51:32.625Z,5.97
2024-01-18T03:54:34.937Z,6.60
2024-01-18T03:57:37.269Z,4.50
2024-01-18T04:00:42.811Z,6.43
2024-01-18T04:03:49.611Z,5.22
2024-01-18T04:06:52.160Z,4.03
2024-01-18T04:09:54.227Z,6.38
2024-01-18T04:12:56.878Z,9.65
2024-01-18T04:15:59.050Z,4.25
2024-01-18T04:19:01.477Z,3.80
2024-01-18T04:22:04.005Z,6.00
2024-01-18T04:25:07.013Z,7.68
2024-01-18T04:28:11.686Z,7.00
2024-01-18T04:31:13.786Z,7.88
2024-01-18T04:34:16.219Z,4.38
2024-01-18T04:37:18.365Z,7.90
2024-01-18T04:40:20.516Z,8.95
2024-01-18T04:43:22.941Z,8.57
2024-01-18T04:46:26.489Z,6.75
2024-01-18T04:49:29.272Z,5.45
2024-01-18T04:52:31.536Z,7.68
2024-01-18T04:55:36.149Z,7.50
2024-01-18T04:58:40.388Z,6.37
2024-01-18T05:01:44.816Z,8.25
2024-01-18T05:04:47.099Z,7.30
2024-01-18T05:07:51.077Z,6.73
2024-01-18T05:10:55.155Z,7.65
2024-01-18T05:13:58.086Z,6.40
2024-01-18T05:17:06.931Z,8.13
2024-01-18T05:20:09.666Z,6.05
2024-01-18T05:23:11.977Z,7.95
2024-01-18T05:26:14.300Z,9.35
2024-01-18T05:29:16.504Z,18.10
2024-01-18T05:32:21.909Z,14.68
2024-01-18T05:35:24.168Z,11.65
2024-01-18T05:38:26.230Z,8.37
2024-01-18T05:41:28.424Z,11.05
2024-01-18T05:44:31.126Z,5.82
2024-01-18T05:47:33.409Z,8.15
2024-01-18T05:50:35.556Z,6.85
2024-01-18T05:53:37.784Z,10.80
2024-01-18T05:56:40.081Z,10.57
2024-01-18T05:59:42.257Z,7.77
2024-01-18T06:02:44.422Z,11.35
2024-01-18T06:05:46.736Z,12.20
2024-01-18T06:08:49.362Z,15.20
2024-01-18T06:11:51.756Z,13.35
2024-01-18T06:14:53.928Z,11.93
2024-01-18T06:18:02.039Z,14.07
2024-01-18T06:21:08.281Z,10.60
2024-01-18T06:24:10.613Z,15.13
2024-01-18T06:27:13.305Z,14.13
2024-01-18T06:30:15.861Z,10.97
2024-01-18T06:33:18.539Z,13.23
2024-01-18T06:36:20.953Z,15.73
2024-01-18T06:39:23.342Z,11.60
2024-01-18T06:42:25.995Z,19.65
2024-01-18T06:45:28.126Z,13.85
2024-01-18T06:48:30.152Z,13.95
2024-01-18T06:51:32.368Z,15.63
2024-01-18T06:54:34.669Z,15.85
2024-01-18T06:57:36.877Z,11.55
2024-01-18T07:00:39.148Z,15.53
2024-01-18T07:03:42.977Z,15.10
2024-01-18T07:06:45.425Z,15.82
2024-01-18T07:09:47.632Z,13.90
2024-01-18T07:12:53.009Z,12.93
2024-01-18T07:15:55.469Z,14.07
2024-01-18T07:18:57.894Z,14.57
2024-01-18T07:22:00.052Z,15.40
2024-01-18T07:25:05.199Z,13.57
2024-01-18T07:28:07.608Z,13.30
2024-01-18T07:31:09.679Z,11.80
2024-01-18T07:34:12.014Z,13.90
2024-01-18T07:37:15.097Z,13.43
2024-01-18T07:40:17.550Z,14.33
2024-01-18T07:43:20.362Z,17.77
2024-01-18T07:46:22.442Z,13.00
2024-01-18T07:49:25.484Z,17.02
2024-01-18T07:52:27.684Z,15.68
2024-01-18T07:55:30.390Z,14.30
2024-01-18T07:58:32.624Z,11.75
2024-01-18T08:01:37.272Z,14.23
2024-01-18T08:04:41.498Z,16.27
2024-01-18T08:07:43.805Z,16.10
2024-01-18T08:10:45.906Z,14.80
2024-01-18T08:13:48.053Z,13.63
2024-01-18T08:16:50.338Z,18.02
2024-01-18T08:19:52.744Z,17.20
2024-01-18T08:22:55.032Z,16.48
2024-01-18T08:25:57.284Z,16.60
2024-01-18T08:28:59.517Z,15.35
2024-01-18T08:32:03.485Z,14.80
2024-01-18T08:35:09.643Z,12.18
2024-01-18T08:38:11.820Z,12.68
2024-01-18T08:41:14.092Z,18.10
2024-01-18T08:44:16.264Z,16.17
2024-01-18T08:47:20.703Z,14.27
2024-01-18T08:50:24.952Z,15.35
2024-01-18T08:53:27.072Z,15.43
2024-01-18T08:56:31.339Z,20.38
2024-01-18T08:59:35.074Z,14.80
2024-01-18T09:02:37.408Z,16.13
2024-01-18T09:05:39.502Z,15.13
2024-01-18T09:08:41.635Z,26.30
2024-01-18T09:11:43.788Z,26.73
2024-01-18T09:14:46.363Z,24.85
2024-01-18T09:17:48.551Z,38.97
2024-01-18T09:20:50.742Z,18.95
2024-01-18T09:23:53.049Z,19.38
2024-01-18T09:26:55.168Z,19.42
2024-01-18T09:29:57.407Z,13.73
2024-01-18T09:32:59.852Z,13.30
2024-01-18T09:36:02.669Z,8.85
2024-01-18T09:39:17.578Z,11.18
2024-01-18T09:42:22.809Z,9.50
2024-01-18T09:45:28.373Z,9.13
2024-01-18T09:48:31.489Z,17.08
2024-01-18T09:51:33.762Z,9.00
2024-01-18T09:54:40.414Z,14.80
2024-01-18T09:57:48.612Z,6.70
2024-01-18T10:01:00.551Z,9.55
2024-01-18T10:04:02.827Z,24.40
2024-01-18T10:07:05.803Z,28.42
2024-01-18T10:10:11.436Z,16.13
2024-01-18T10:13:14.900Z,17.52
2024-01-18T10:16:33.937Z,20.40
2024-01-18T10:19:36.311Z,14.50
2024-01-18T10:22:39.717Z,17.55
2024-01-18T10:25:42.097Z,18.03
2024-01-18T10:28:44.752Z,14.05
2024-01-18T10:31:46.985Z,13.05
2024-01-18T10:34:49.951Z,9.43
2024-01-18T10:38:05.346Z,9.27
2024-01-18T10:41:09.136Z,21.40
2024-01-18T10:44:11.774Z,23.55
2024-01-18T10:47:16.170Z,25.07
2024-01-18T10:50:18.645Z,18.33
2024-01-18T10:53:24.051Z,16.10
2024-01-18T10:56:26.323Z,15.97
2024-01-18T10:59:30.575Z,11.95
2024-01-18T11:02:33.194Z,8.88
2024-01-18T11:05:35.621Z,9.35
2024-01-18T11:08:38.882Z,9.30
2024-01-18T11:11:41.823Z,11.30
2024-01-18T11:14:44.353Z,6.68
2024-01-18T11:17:48.303Z,20.90
2024-01-18T11:21:10.209Z,17.17
2024-01-18T11:24:13.284Z,36.33
2024-01-18T11:27:23.131Z,35.28
2024-01-18T11:30:37.307Z,22.17
2024-01-18T11:33:40.169Z,21.58
2024-01-18T11:36:49.311Z,22.73
2024-01-18T11:39:52.308Z,20.17
2024-01-18T11:42:54.711Z,22.83
2024-01-18T11:45:57.238Z,20.20
2024-01-18T11:48:59.695Z,16.92
2024-01-18T11:52:02.131Z,13.50
2024-01-18T11:55:05.493Z,15.93
2024-01-18T11:58:09.347Z,18.02
2024-01-18T12:01:15.196Z,15.25
2024-01-18T12:04:17.334Z,30.43
2024-01-18T12:07:21.392Z,27.92
2024-01-18T12:10:24.920Z,25.85
2024-01-18T12:13:28.608Z,22.10
2024-01-18T12:16:32.021Z,19.33
2024-01-18T12:19:36.132Z,21.48
2024-01-18T12:22:38.530Z,22.77
2024-01-18T12:25:40.738Z,25.63
2024-01-18T12:28:42.958Z,27.55
2024-01-18T12:31:48.258Z,21.65
2024-01-18T12:34:50.773Z,25.42
2024-01-18T12:37:53.163Z,28.90
2024-01-18T12:40:55.363Z,26.75
2024-01-18T12:44:04.771Z,25.45
2024-01-18T12:47:07.151Z,20.48
2024-01-18T12:50:11.899Z,17.77
2024-01-18T12:53:14.514Z,24.90
2024-01-18T12:56:17.886Z,28.85
2024-01-18T12:59:20.140Z,21.63
2024-01-18T13:02:26.653Z,21.02
2024-01-18T13:05:29.114Z,22.02
2024-01-18T13:08:32.348Z,19.02
2024-01-18T13:11:34.932Z,15.43
2024-01-18T13:14:38.087Z,19.42
2024-01-18T13:17:42.864Z,19.67
2024-01-18T13:20:45.950Z,15.10
2024-01-18T13:23:48.193Z,10.27
2024-01-18T13:26:51.637Z,10.60
2024-01-18T13:29:53.694Z,11.80
2024-01-18T13:32:57.016Z,12.85
2024-01-18T13:35:59.429Z,9.97
2024-01-18T13:39:02.380Z,12.73
2024-01-18T13:42:04.838Z,12.63
2024-01-18T13:45:07.531Z,12.98
2024-01-18T13:48:09.813Z,12.53
2024-01-18T13:51:14.852Z,13.02
2024-01-18T13:54:17.453Z,15.27
2024-01-18T13:57:20.036Z,21.55
2024-01-18T14:00:23.458Z,20.33
2024-01-18T14:03:26.082Z,12.85
2024-01-18T14:06:28.529Z,13.25
2024-01-18T14:09:32.187Z,14.07
2024-01-18T14:12:36.486Z,15.32
2024-01-18T14:15:39.836Z,22.58
2024-01-18T14:18:42.929Z,28.60
2024-01-18T14:21:45.908Z,24.23
2024-01-18T14:24:48.898Z,23.95
2024-01-18T14:27:51.151Z,46.85
2024-01-18T14:30:53.785Z,28.73
2024-01-18T14:33:56.151Z,22.80
2024-01-18T14:36:58.621Z,25.05
2024-01-18T14:40:00.931Z,30.60
2024-01-18T14:43:05.456Z,40.95
2024-01-18T14:46:07.947Z,33.78
2024-01-18T14:49:10.154Z,30.45
2024-01-18T14:52:12.519Z,33.30
2024-01-18T14:55:15.176Z,27.27
2024-01-18T14:58:17.419Z,30.48
2024-01-18T15:01:19.538Z,41.50
2024-01-18T15:04:21.886Z,27.90
2024-01-18T15:07:24.142Z,24.65
2024-01-18T15:10:26.374Z,19.45
2024-01-18T15:13:28.538Z,24.00
2024-01-18T15:16:30.710Z,21.50
2024-01-18T15:19:33.873Z,18.63
2024-01-18T15:22:36.116Z,30.00
2024-01-18T15:25:40.080Z,25.85
2024-01-18T15:28:42.264Z,42.90
2024-01-18T15:31:44.476Z,25.67
2024-01-18T15:34:47.228Z,24.10
2024-01-18T15:37:51.019Z,38.97
2024-01-18T15:40:53.652Z,25.17
2024-01-18T15:43:56.325Z,36.65
2024-01-18T15:47:05.858Z,28.50
2024-01-18T15:50:08.882Z,23.45
2024-01-18T15:53:11.302Z,19.05
2024-01-18T15:56:13.666Z,35.60
2024-01-18T15:59:15.860Z,31.67
2024-01-18T16:02:18.692Z,42.88
2024-01-18T16:05:22.764Z,31.52
2024-01-18T16:08:25.136Z,27.33
2024-01-18T16:11:27.358Z,33.13
2024-01-18T16:14:30.131Z,34.13
2024-01-18T16:17:32.246Z,34.22
2024-01-18T16:20:34.385Z,64.40
2024-01-18T16:23:36.795Z,58.03
2024-01-18T16:26:39.373Z,40.92
2024-01-18T16:29:54.172Z,27.70
2024-01-18T16:33:03.810Z,31.17
2024-01-18T16:36:06.740Z,22.85
2024-01-18T16:39:10.131Z,39.20
2024-01-18T16:42:12.283Z,43.80
2024-01-18T16:45:14.776Z,33.25
2024-01-18T16:48:17.278Z,33.15
2024-01-18T16:51:19.896Z,39.47
2024-01-18T16:54:23.031Z,33.22
2024-01-18T16:57:32.092Z,27.75
2024-01-18T17:00:35.311Z,27.27
2024-01-18T17:03:38.045Z,27.25
2024-01-18T17:06:41.198Z,32.33
2024-01-18T17:09:44.481Z,42.78
2024-01-18T17:12:46.661Z,35.30
2024-01-18T17:15:49.173Z,26.77
2024-01-18T17:18:51.501Z,29.42
2024-01-18T17:21:53.764Z,33.23
2024-01-18T17:24:56.022Z,31.25
2024-01-18T17:27:58.376Z,22.95
2024-01-18T17:31:00.700Z,28.25
2024-01-18T17:34:04.197Z,29.00
2024-01-18T17:37:06.399Z,29.15
2024-01-18T17:40:09.177Z,37.45
2024-01-18T17:43:11.454Z,39.43
2024-01-18T17:46:13.649Z,36.55
2024-01-18T17:49:15.988Z,29.52
2024-01-18T17:52:18.210Z,33.13
2024-01-18T17:55:20.457Z,32.17
2024-01-18T17:58:22.714Z,45.92
2024-01-18T18:01:24.929Z,32.45
2024-01-18T18:04:27.082Z,34.38
2024-01-18T18:07:29.159Z,32.78
2024-01-18T18:10:31.381Z,35.20
2024-01-18T18:13:35.402Z,34.93
2024-01-18T18:16:37.699Z,29.42
2024-01-18T18:19:39.920Z,21.60
2024-01-18T18:22:42.058Z,23.93
2024-01-18T18:25:44.258Z,25.10
2024-01-18T18:28:47.604Z,24.70
2024-01-18T18:31:49.687Z,25.25
2024-01-18T18:34:51.876Z,23.55
2024-01-18T18:37:54.105Z,40.85
2024-01-18T18:40:56.303Z,27.00
2024-01-18T18:43:58.453Z,25.63
2024-01-18T18:47:00.844Z,35.58
2024-01-18T18:50:03.004Z,27.55
2024-01-18T18:53:05.335Z,31.80
2024-01-18T18:56:07.571Z,28.25
2024-01-18T18:59:09.854Z,21.63
2024-01-18T19:02:12.034Z,19.42
2024-01-18T19:05:14.468Z,21.77
2024-01-18T19:08:16.973Z,28.33
2024-01-18T19:11:19.306Z,24.98
2024-01-18T19:14:21.570Z,24.73
2024-01-18T19:17:26.462Z,31.08
2024-01-18T19:20:29.759Z,42.00
2024-01-18T19:23:31.902Z,30.00
2024-01-18T19:26:34.185Z,36.78
2024-01-18T19:29:36.485Z,41.55
2024-01-18T19:32:40.892Z,32.35
2024-01-18T19:35:43.656Z,35.60
2024-01-18T19:38:47.715Z,26.55
2024-01-18T19:41:50.543Z,24.30
2024-01-18T19:44:54.236Z,30.77
2024-01-18T19:47:56.688Z,25.27
2024-01-18T19:50:58.948Z,53.00
2024-01-18T19:54:04.194Z,36.63
2024-01-18T19:57:06.888Z,33.90
2024-01-18T20:00:10.381Z,28.55
2024-01-18T20:03:15.466Z,28.63
2024-01-18T20:06:17.895Z,33.20
2024-01-18T20:09:20.485Z,28.92
2024-01-18T20:12:26.670Z,24.75
2024-01-18T20:15:29.375Z,30.60
2024-01-18T20:18:31.814Z,24.48
2024-01-18T20:21:34.420Z,21.17
2024-01-18T20:24:37.209Z,21.77
2024-01-18T20:27:40.175Z,19.10
2024-01-18T20:30:42.722Z,22.02
2024-01-18T20:33:46.997Z,22.33
2024-01-18T20:36:50.985Z,22.67
2024-01-18T20:39:54.154Z,38.33
2024-01-18T20:42:56.653Z,40.92
2024-01-18T20:45:59.768Z,58.67
2024-01-18T20:49:03.800Z,64.82
2024-01-18T20:52:08.288Z,70.53
2024-01-18T20:55:10.700Z,62.87
2024-01-18T20:58:12.836Z,68.78
2024-01-18T21:01:15.071Z,51.40
2024-01-18T21:04:17.495Z,42.45
2024-01-18T21:07:21.579Z,28.73
2024-01-18T21:10:24.305Z,25.05
2024-01-18T21:13:27.192Z,31.65
2024-01-18T21:16:29.582Z,32.40
2024-01-18T21:19:31.935Z,33.17
2024-01-18T21:22:34.639Z,45.88
2024-01-18T21:25:37.247Z,28.97
2024-01-18T21:28:40.649Z,38.80
2024-01-18T21:31:42.743Z,32.35
2024-01-18T21:34:45.009Z,42.13
2024-01-18T21:37:47.337Z,29.35
2024-01-18T21:40:49.513Z,30.95
2024-01-18T21:43:51.699Z,35.35
2024-01-18T21:46:55.705Z,39.57
2024-01-18T21:49:58.690Z,34.33
2024-01-18T21:53:01.139Z,43.85
2024-01-18T21:56:03.517Z,45.43
2024-01-18T21:59:06.617Z,34.97
2024-01-18T22:02:13.646Z,41.38
2024-01-18T22:05:17.959Z,29.90
2024-01-18T22:08:20.564Z,33.33
2024-01-18T22:11:22.958Z,36.08
2024-01-18T22:14:25.842Z,32.25
2024-01-18T22:17:28.530Z,33.27
2024-01-18T22:20:31.216Z,33.33
2024-01-18T22:23:33.746Z,41.45
2024-01-18T22:26:36.098Z,41.10
2024-01-18T22:29:38.479Z,31.02
2024-01-18T22:32:43.315Z,31.80
2024-01-18T22:35:45.502Z,34.17
2024-01-18T22:38:47.779Z,30.80
2024-01-18T22:41:49.919Z,47.90
2024-01-18T22:44:52.559Z,35.72
2024-01-18T22:47:55.054Z,45.27
2024-01-18T22:50:57.598Z,48.97
2024-01-18T22:54:01.807Z,36.97
2024-01-18T22:57:04.367Z,26.33
2024-01-18T23:00:07.382Z,43.45
2024-01-18T23:03:09.682Z,39.05
2024-01-18T23:06:13.293Z,36.20
2024-01-18T23:09:15.521Z,33.72
2024-01-18T23:12:17.911Z,30.50
2024-01-18T23:15:20.399Z,44.60
2024-01-18T23:18:22.942Z,39.07
2024-01-18T23:21:25.259Z,26.17
2024-01-18T23:24:27.527Z,46.05
2024-01-18T23:27:29.962Z,34.80
2024-01-18T23:30:32.366Z,44.40
2024-01-18T23:33:34.548Z,36.85
2024-01-18T23:36:38.976Z,28.50
2024-01-18T23:39:41.656Z,29.67
2024-01-18T23:42:43.998Z,26.80
2024-01-18T23:45:46.143Z,28.40
2024-01-18T23:48:48.387Z,23.60
2024-01-18T23:51:50.770Z,22.05
2024-01-18T23:54:52.952Z,20.15
2024-01-18T23:57:55.136Z,18.97
